Latest Coastal Weather Observations for Gabo Island (VIC)

IDN60701

Issued at 10:41 pm EDT Friday 19 January 2018 (issued every 10 minutes, with the page automatically refreshed every 10 minutes)

About coastal observations | Map of coastal stations | Coastal observations for NSW | Marine services | Other Formats
Station Details ID: 084016 Name: GABO ISLAND LIGHTHOUSE Lat: -37.57 Lon: 149.92 Height: 15.2 m
Data from the previous 72 hours. | See also: Recent months at Gabo Island (VIC)
Date/Time
EDT
Temp
°C
Wind Pressure Rain since
9am
mm
Weather Cloud Vis
km
Sea
Height
m
Swell
Dir  Spd
kts
Gust
kts
hPa Trend Height
m
Period
s
Dir
19/10:30pm 22.2 N 11 13 1012.0 - 0.0 - - - - - - -
19/10:00pm 22.5 N 12 14 1011.9 - 0.0 - - - - - - -
19/09:30pm 22.2 NNE 12 14 1011.7 - 0.0 - - - - - - -
19/09:00pm 22.3 NNE 12 15 1011.6 - 0.0 Fine Clear 30 <0.5 1.0 - -
19/08:30pm 22.6 NNE 13 15 1011.6 - 0.0 - - - - - - -
19/08:00pm 23.2 NNE 13 16 1011.5 - 0.0 - - - - - - -
19/07:30pm 23.6 NNE 14 18 1011.4 - 0.0 - - - - - - -
19/07:00pm 23.4 NE 16 19 1011.3 - 0.0 - - - - - - -
19/06:30pm 23.9 NNE 19 23 1011.0 - 0.0 - - - - - - -
19/06:00pm 23.8 NE 17 19 1010.9 - 0.0 - - - - - - -
19/05:30pm 23.9 NE 16 19 1011.1 - 0.0 - - - - - - -
19/05:00pm 25.0 NE 15 17 1010.9 - 0.0 - - - - - - -
19/04:30pm 25.0 NE 14 17 1011.1 - 0.0 - - - - - - -
19/04:00pm 25.0 NE 16 18 1011.2 - 0.0 - - - - - - -
19/03:30pm 25.3 NE 14 17 1011.5 - 0.0 - - - - - - -
19/03:00pm 25.6 NE 14 16 1011.5 - 0.0 Fine Mostly clear 20 1 1.0 - -
19/02:30pm 25.7 NE 12 14 1011.8 - 0.0 - - - - - - -
19/02:00pm 26.0 NE 11 13 1012.0 - 0.0 - - - - - - -
19/01:30pm 25.0 NNE 8 9 1012.1 - 0.0 - - - - - - -
19/01:00pm 24.7 NNE 9 11 1012.3 - 0.0 - - - - - - -
19/12:30pm 24.4 NNE 8 10 1012.6 - 0.0 - - - - - - -
19/12:00pm 24.0 NNE 8 10 1012.7 - 0.0 - - - - - - -
19/11:30am 24.2 NE 7 9 1013.0 - 0.0 - - - - - - -
19/11:00am 23.8 NNE 7 8 1013.1 - 0.0 - - - - - - -
19/10:30am 23.9 NE 6 7 1013.1 - 0.0 - - - - - - -
19/10:00am 23.0 NE 7 8 1013.0 - 0.0 - - - - - - -
19/09:30am 23.4 NNE 5 7 1013.2 - 0.0 - - - - - - -
19/09:00am 22.2 NE 6 7 1012.9 - 0.0 Fine Clear 20 <0.5 1.0 - -
19/08:30am 22.5 NNE 5 6 1013.2 - 0.0 - - - - - - -
19/08:00am 21.6 NNE 5 6 1013.0 - 0.0 - - - - - - -
19/07:30am 20.7 NNE 6 7 1012.8 - 0.0 - - - - - - -
19/07:00am 19.9 NNE 5 6 1012.8 - 0.0 - - - - - - -
19/06:30am 17.9 NNE 5 7 1012.6 - 0.0 - - - - - - -
19/06:00am 17.6 N 6 7 1012.4 - 0.0 - - - - - - -
19/05:30am 18.3 NNE 10 11 1012.3 - 0.0 - - - - - - -
19/05:00am 18.5 NNE 10 12 1012.2 - 0.0 - - - - - - -
19/04:30am 17.5 NNE 6 8 1012.4 - 0.0 - - - - - - -
19/04:00am 16.9 N 6 7 1012.4 - 0.0 - - - - - - -
19/03:30am 17.7 N 6 7 1012.5 - 0.0 - - - - - - -
19/03:00am 18.0 N 8 8 1012.7 - 0.0 Fine Clear 30 1 1.0 - -
19/02:30am 18.7 NNE 9 10 1013.0 - 0.0 - - - - - - -
19/02:00am 18.9 NNE 11 12 1013.3 - 0.0 - - - - - - -
19/01:30am 18.5 N 8 10 1013.8 - 0.0 - - - - - - -
19/01:00am 19.0 N 11 14 1014.0 - 0.0 - - - - - - -
19/12:30am 19.1 N 12 14 1014.1 - 0.0 - - - - - - -
19/12:00am 19.6 NNE 14 17 1014.3 - 0.0 - - - - - - -
 
Date/Time
EDT
Temp
°C
Wind Pressure Rain since
9am
mm
Weather Cloud Vis
km
Sea
Height
m
Swell
Dir  Spd
kts
Gust
kts
hPa Trend Height
m
Period
s
Dir
18/11:30pm 19.3 N 12 15 1014.8 - 0.0 - - - - - - -
18/11:00pm 19.3 N 14 17 1015.0 - 0.0 - - - - - - -
18/10:30pm 19.7 NNE 16 18 1015.2 - 0.0 - - - - - - -
18/10:00pm 19.6 N 13 16 1015.3 - 0.0 - - - - - - -
18/09:30pm 19.8 N 15 17 1015.2 - 0.0 - - - - - - -
18/09:00pm 20.1 NNE 14 17 1014.9 - 0.0 Fine Clear 30 1 1.0 - -
18/08:30pm 20.5 NNE 17 20 1014.9 - 0.0 - - - - - - -
18/08:00pm 20.9 NNE 18 22 1014.9 - 0.0 - - - - - - -
18/07:30pm 21.3 NNE 21 24 1014.7 - 0.0 - - - - - - -
18/07:00pm 21.7 NNE 22 25 1014.5 - 0.0 - - - - - - -
18/06:30pm 21.9 NNE 22 27 1014.3 - 0.0 - - - - - - -
18/06:00pm 22.2 NNE 21 29 1014.3 - 0.0 - - - - - - -
18/05:30pm 22.5 NNE 23 28 1014.6 - 0.0 - - - - - - -
18/05:00pm 22.7 NNE 21 26 1014.8 - 0.0 - - - - - - -
18/04:30pm 22.9 NE 21 25 1014.9 - 0.0 - - - - - - -
18/04:00pm 22.7 NE 21 25 1015.1 - 0.0 - - - - - - -
18/03:30pm 23.1 NE 20 24 1015.3 - 0.0 - - - - - - -
18/03:00pm 23.1 NE 20 24 1015.3 - 0.0 Fine Mostly clear 20 1 1.0 - -
18/02:30pm 23.4 NE 20 25 1015.5 - 0.0 - - - - - - -
18/02:00pm 23.8 NE 19 22 1015.8 - 0.0 - - - - - - -
18/01:30pm 23.2 NE 20 23 1016.1 - 0.0 - - - - - - -
18/01:00pm 22.5 NE 21 25 1016.3 - 0.0 - - - - - - -
18/12:30pm 22.3 NE 21 24 1016.5 - 0.0 - - - - - - -
18/12:00pm 22.2 NE 21 24 1016.8 - 0.0 - - - - - - -
18/11:30am 22.4 NE 19 22 1017.1 - 0.0 - - - - - - -
18/11:00am 22.3 NE 17 21 1017.2 - 0.0 - - - - - - -
18/10:30am 21.6 NE 19 23 1017.4 - 0.0 - - - - - - -
18/10:00am 21.1 NE 19 22 1017.5 - 0.0 - - - - - - -
18/09:30am 21.2 NNE 17 20 1017.8 - 0.0 - - - - - - -
18/09:00am 20.5 NNE 18 20 1017.8 - 0.0 - Clear 30 1 1.0 - -
18/08:30am 19.9 NNE 17 21 1017.7 - 0.0 - - - - - - -
18/08:00am 18.8 NNE 16 18 1017.8 - 0.0 - - - - - - -
18/07:30am 17.7 NNE 14 17 1017.8 - 0.0 - - - - - - -
18/07:00am 16.7 NNE 12 15 1017.6 - 0.0 - - - - - - -
18/06:30am 16.0 NNE 13 15 1017.6 - 0.0 - - - - - - -
18/06:00am 16.0 NNE 11 14 1017.3 - 0.0 - - - - - - -
18/05:30am 15.2 NNE 10 13 1017.5 - 0.0 - - - - - - -
18/05:00am 15.2 NNE 11 13 1017.4 - 0.0 - - - - - - -
18/04:30am 15.4 NNE 10 12 1017.3 - 0.0 - - - - - - -
18/04:00am 15.0 NNE 9 10 1017.4 - 0.0 - - - - - - -
18/03:30am 15.3 NNE 8 10 1017.7 - 0.0 - - - - - - -
18/03:00am 15.4 NNE 9 10 1017.9 - 0.0 Fine Clear 30 1 1.0 - -
18/02:30am 15.5 NNE 9 11 1018.3 - 0.0 - - - - - - -
18/02:00am 16.0 NNE 8 10 1018.7 - 0.0 - - - - - - -
18/01:30am 16.0 NNE 7 9 1018.9 - 0.0 - - - - - - -
18/01:00am 14.7 N 7 8 1018.9 - 0.0 - - - - - - -
18/12:30am 15.2 N 7 9 1019.1 - 0.0 - - - - - - -
18/12:00am 14.9 N 6 7 1019.2 - 0.0 - - - - - - -
 
Date/Time
EDT
Temp
°C
Wind Pressure Rain since
9am
mm
Weather Cloud Vis
km
Sea
Height
m
Swell
Dir  Spd
kts
Gust
kts
hPa Trend Height
m
Period
s
Dir
17/11:30pm 14.9 N 7 8 1019.2 - 0.0 - - - - - - -
17/11:00pm 16.3 N 7 8 1019.2 - 0.0 - - - - - - -
17/10:30pm 15.1 N 6 8 1019.5 - 0.0 - - - - - - -
17/10:00pm 15.8 N 6 7 1019.6 - 0.0 - - - - - - -
17/09:30pm 18.3 ENE 6 7 1019.6 - 0.0 - - - - - - -
17/09:00pm 18.5 E 5 6 1019.4 - 0.0 Fine Mostly clear 30 1 1.0 - -
17/08:30pm 18.7 E 5 6 1019.4 - 0.0 - - - - - - -
17/08:00pm 19.3 SE 5 7 1019.3 - 0.0 - - - - - - -
17/07:30pm 19.4 SSE 7 11 1019.0 - 0.0 - - - - - - -
17/07:00pm 20.1 SSE 8 10 1018.7 - 0.0 - - - - - - -
17/06:30pm 20.4 SSE 11 12 1018.5 - 0.0 - - - - - - -
17/06:00pm 20.5 SSE 12 14 1018.4 - 0.0 - - - - - - -
17/05:30pm 21.1 SSE 12 14 1018.5 - 0.0 - - - - - - -
17/05:00pm 21.2 S 11 13 1018.7 - 0.0 - - - - - - -
17/04:30pm 21.0 S 9 12 1018.9 - 0.0 - - - - - - -
17/04:00pm 21.1 S 11 12 1019.1 - 0.0 - - - - - - -
17/03:30pm 21.3 S 10 12 1019.3 - 0.0 - - - - - - -
17/03:00pm 20.8 S 12 14 1019.4 - 0.0 Fine Partly cloudy 30 2 4.0 - -
17/02:30pm 21.3 S 13 16 1019.7 - 0.0 - - - - - - -
17/02:00pm 21.4 S 13 15 1019.7 - 0.0 - - - - - - -
17/01:30pm 21.1 SSW 14 17 1019.8 - 0.0 - - - - - - -
17/01:00pm 19.4 SSW 15 17 1020.0 - 0.0 - - - - - - -
17/12:30pm 19.5 SW 14 16 1020.4 - 0.0 - - - - - - -
17/12:00pm 20.2 WSW 14 17 1020.4 - 0.0 - - - - - - -
17/11:30am 20.2 SW 13 16 1020.5 - 0.0 - - - - - - -
17/11:00am 19.7 SW 13 17 1020.5 - 0.0 - - - - - - -
17/10:30am 19.4 SW 14 17 1020.6 - 0.0 - - - - - - -
17/10:00am 18.9 SW 14 17 1020.7 - 0.0 - - - - - - -
17/09:30am 18.9 SW 13 16 1020.7 - 0.0 - - - - - - -
17/09:00am 18.6 WSW 11 14 1020.7 - 0.0 Fine Partly cloudy 30 2 1.0 - -
17/08:30am 18.2 WSW 12 15 1020.7 - 0.0 - - - - - - -
17/08:00am 17.4 WSW 13 16 1020.5 - 0.0 - - - - - - -
17/07:30am 16.5 WSW 12 15 1020.1 - 0.0 - - - - - - -
17/07:00am 16.1 W 13 16 1019.9 - 0.0 - - - - - - -
17/06:30am 15.8 WSW 12 16 1019.6 - 0.0 - - - - - - -
17/06:00am 16.5 SW 14 19 1019.5 - 0.0 - - - - - - -
17/05:30am 17.2 SSW 18 20 1019.1 - 0.0 - - - - - - -
17/05:00am 17.3 SSW 17 20 1019.0 - 0.0 - - - - - - -
17/04:30am 17.4 SSW 17 20 1019.1 - 0.0 - - - - - - -
17/04:00am 17.0 SSW 17 21 1019.3 - 0.0 - - - - - - -
17/03:30am 17.1 SSW 17 20 1019.6 - 0.0 - - - - - - -
17/03:00am 17.3 SSW 17 19 1019.9 - 0.0 - - - - - - -
17/02:30am 17.3 SSW 16 21 1020.1 - 0.0 - - - - - - -
17/02:00am 17.4 SSW 17 20 1020.3 - 0.0 - - - - - - -
17/01:30am 17.4 SSW 17 21 1020.5 - 0.0 - - - - - - -
17/01:00am 17.3 S 15 18 1020.8 - 0.0 - - - - - - -
17/12:30am 17.5 SSW 16 20 1021.1 - 0.0 - - - - - - -
17/12:00am 17.7 S 17 20 1021.5 - 0.0 - - - - - - -
 
Date/Time
EDT
Temp
°C
Wind Pressure Rain since
9am
mm
Weather Cloud Vis
km
Sea
Height
m
Swell
Dir  Spd
kts
Gust
kts
hPa Trend Height
m
Period
s
Dir
16/11:30pm 17.8 SSW 15 19 1021.7 - 0.0 - - - - - - -
16/11:00pm 18.0 SSW 16 20 1021.8 - 0.0 - - - - - - -

Other Formats:

Comma delimited format used in spreadsheet applications
http://www.bom.gov.au/fwo/IDN60701/IDN60701.94933.axf

JavaScript Object Notation format (JSON) in row-major order
http://www.bom.gov.au/fwo/IDN60701/IDN60701.94933.json